Time;durP1;ratioP1;P1;durP2;ratioP2;P2;SDS_P1;SDS_P2;PMS_P1;PMS_P2;Temp;Humidity;BMP_temperature;BMP_pressure;BME280_temperature;BME280_humidity;BME280_pressure;Samples;Min_cycle;Max_cycle;Signal;HPM_P1;HPM_P2
2024/02/23 00:00:36;;;;;;;0.40;0.15;;;;;;;17.45;57.78;98486.75;10449872;28;20036;-57
2024/02/23 00:05:37;;;;;;;0.55;0.20;;;;;;;17.44;58.68;98477.94;10450093;28;20021;-57
2024/02/23 00:10:37;;;;;;;1.33;0.30;;;;;;;17.45;57.69;98492.88;10449231;28;20044;-57
2024/02/23 00:15:38;;;;;;;0.45;0.20;;;;;;;17.50;58.10;98507.91;10448319;28;20990;-56
2024/02/23 00:20:38;;;;;;;2.43;0.30;;;;;;;17.46;56.98;98496.34;10449281;28;20086;-57
2024/02/23 00:25:38;;;;;;;1.25;0.20;;;;;;;17.45;58.84;98508.97;10449783;28;20279;-57
2024/02/23 00:30:39;;;;;;;0.70;0.20;;;;;;;17.43;57.47;98521.13;10451867;28;20021;-58
2024/02/23 00:35:39;;;;;;;0.82;0.20;;;;;;;17.44;57.72;98525.38;10457661;28;20024;-56
2024/02/23 00:40:39;;;;;;;1.07;0.30;;;;;;;17.40;58.51;98538.66;10457020;28;20029;-58
2024/02/23 00:45:40;;;;;;;1.43;0.20;;;;;;;17.40;57.64;98557.41;10456992;28;20275;-57
2024/02/23 00:50:41;;;;;;;0.35;0.25;;;;;;;17.42;58.87;98568.59;10456837;28;20279;-57
2024/02/23 00:55:41;;;;;;;0.67;0.20;;;;;;;17.40;57.33;98572.69;10457070;28;20025;-57
2024/02/23 01:00:41;;;;;;;0.33;0.17;;;;;;;17.43;57.93;98575.50;10456341;28;20661;-57
2024/02/23 01:05:42;;;;;;;1.52;0.20;;;;;;;17.47;57.64;98546.13;10456417;28;20291;-57
2024/02/23 01:10:42;;;;;;;0.47;0.10;;;;;;;17.42;57.82;98608.75;10455539;28;20049;-57
2024/02/23 01:15:43;;;;;;;0.75;0.20;;;;;;;17.40;58.57;98586.09;10455692;28;20099;-57
2024/02/23 01:20:43;;;;;;;0.27;0.20;;;;;;;17.40;58.16;98589.53;10455434;28;20056;-57
2024/02/23 01:25:44;;;;;;;0.75;0.20;;;;;;;17.41;58.46;98585.00;10455587;28;20275;-57
2024/02/23 01:30:44;;;;;;;0.90;0.40;;;;;;;17.41;58.62;98591.13;10455270;28;20024;-57
2024/02/23 01:35:44;;;;;;;0.33;0.10;;;;;;;17.42;58.33;98587.34;10455088;28;20033;-57
2024/02/23 01:40:45;;;;;;;0.80;0.23;;;;;;;17.40;57.38;98594.91;10454741;28;20282;-58
2024/02/23 01:45:45;;;;;;;0.40;0.20;;;;;;;17.36;57.62;98607.44;10454860;28;20275;-55
2024/02/23 01:50:46;;;;;;;0.23;0.10;;;;;;;17.38;58.30;98615.13;10454634;28;20104;-57
2024/02/23 01:55:47;;;;;;;0.10;0.10;;;;;;;17.37;57.63;98616.25;10454443;28;20703;-57
2024/02/23 02:00:49;;;;;;;0.30;0.13;;;;;;;17.37;58.43;98621.59;10452642;28;20063;-56
2024/02/23 02:05:50;;;;;;;0.28;0.15;;;;;;;17.39;57.97;98628.16;10454115;28;20017;-57
2024/02/23 02:10:51;;;;;;;0.43;0.10;;;;;;;17.38;57.92;98633.88;10451819;28;20061;-56
2024/02/23 02:15:51;;;;;;;1.15;0.30;;;;;;;17.34;58.08;98639.13;10453747;28;20064;-56
2024/02/23 02:20:54;;;;;;;0.23;0.20;;;;;;;17.37;57.70;98645.72;10452889;28;20025;-57
2024/02/23 02:25:55;;;;;;;0.63;0.20;;;;;;;17.37;58.00;98648.38;10453391;28;20417;-58
2024/02/23 02:30:56;;;;;;;0.65;0.15;;;;;;;17.34;57.60;98659.78;10452771;28;20025;-57
2024/02/23 02:35:56;;;;;;;1.60;0.53;;;;;;;17.35;57.43;98670.16;10452801;28;20025;-58
2024/02/23 02:40:57;;;;;;;1.35;0.22;;;;;;;17.35;57.18;98658.66;10451141;28;20275;-57
2024/02/23 02:45:57;;;;;;;1.10;0.38;;;;;;;17.37;56.80;98667.13;10452900;28;20021;-56
2024/02/23 02:50:58;;;;;;;0.57;0.20;;;;;;;17.39;57.10;98668.34;10451844;28;20028;-57
2024/02/23 02:55:58;;;;;;;0.47;0.20;;;;;;;17.37;58.11;98669.81;10451610;28;20020;-57
2024/02/23 03:00:58;;;;;;;0.22;0.20;;;;;;;17.34;58.50;98668.59;10451628;28;20750;-57
2024/02/23 03:05:59;;;;;;;0.87;0.20;;;;;;;17.37;58.20;98662.56;10452101;28;20028;-57
2024/02/23 03:10:59;;;;;;;1.27;0.20;;;;;;;17.36;58.55;98662.91;10450959;28;20307;-57
2024/02/23 03:16:00;;;;;;;0.15;0.10;;;;;;;17.36;57.50;98669.03;10451324;28;20287;-58
2024/02/23 03:21:00;;;;;;;0.82;0.40;;;;;;;17.36;57.13;98684.34;10451106;28;20040;-57
2024/02/23 03:26:00;;;;;;;0.47;0.20;;;;;;;17.35;58.01;98678.19;10450922;28;20369;-58
2024/02/23 03:31:01;;;;;;;0.77;0.13;;;;;;;17.34;57.33;98684.66;10450548;28;20279;-57
2024/02/23 03:36:03;;;;;;;0.47;0.20;;;;;;;17.34;58.29;98692.72;10450788;28;20298;-58
2024/02/23 03:41:03;;;;;;;32.28;1.15;;;;;;;17.34;56.68;98697.28;10450017;28;20124;-58
2024/02/23 03:46:06;;;;;;;0.30;0.15;;;;;;;17.32;57.53;98691.50;10447295;28;20031;-57
2024/02/23 03:51:08;;;;;;;0.35;0.17;;;;;;;17.35;56.64;98698.84;10444432;28;20033;-57
2024/02/23 03:56:08;;;;;;;0.40;0.20;;;;;;;17.36;56.67;98700.41;10449931;28;20100;-57
2024/02/23 04:01:09;;;;;;;1.30;0.38;;;;;;;17.35;57.92;98715.69;10448545;28;20470;-57
2024/02/23 04:06:09;;;;;;;0.32;0.13;;;;;;;17.34;58.29;98713.34;10453734;28;20027;-57
2024/02/23 04:11:12;;;;;;;0.27;0.10;;;;;;;17.34;58.24;98713.34;10449792;28;20052;-58
2024/02/23 04:16:13;;;;;;;1.35;0.20;;;;;;;17.32;56.83;98732.44;10457639;28;20295;-57
2024/02/23 04:21:15;;;;;;;0.20;0.10;;;;;;;17.35;57.53;98723.72;10456909;28;20028;-57
2024/02/23 04:26:15;;;;;;;0.30;0.20;;;;;;;17.38;58.18;98733.00;10457310;28;20021;-58
2024/02/23 04:31:15;;;;;;;0.32;0.30;;;;;;;17.38;57.78;98746.38;10456803;28;20017;-58
2024/02/23 04:36:19;;;;;;;0.73;0.33;;;;;;;17.33;57.91;98747.41;10456874;28;20427;-57
2024/02/23 04:41:23;;;;;;;1.52;0.20;;;;;;;17.33;58.08;98754.66;10456172;28;20267;-58
2024/02/23 04:46:23;;;;;;;0.30;0.10;;;;;;;17.36;56.92;98753.97;10456185;28;20021;-58
2024/02/23 04:51:23;;;;;;;0.53;0.10;;;;;;;17.34;57.78;98766.94;10455724;28;20028;-58
2024/02/23 04:56:24;;;;;;;0.20;0.10;;;;;;;17.31;57.52;98765.72;10456494;28;20299;-58
2024/02/23 05:01:24;;;;;;;1.75;0.20;;;;;;;17.31;56.55;98773.75;10456593;28;20283;-58
2024/02/23 05:06:25;;;;;;;0.70;0.20;;;;;;;17.31;57.71;98773.75;10456309;28;20031;-57
2024/02/23 05:11:25;;;;;;;0.13;0.13;;;;;;;17.30;57.69;98766.03;10455602;28;20044;-57
2024/02/23 05:16:25;;;;;;;0.70;0.55;;;;;;;17.34;58.19;98765.03;10455212;28;20287;-57
2024/02/23 05:21:26;;;;;;;0.28;0.15;;;;;;;17.33;57.59;98760.00;10454628;28;20036;-58
2024/02/23 05:26:26;;;;;;;0.40;0.20;;;;;;;17.34;57.30;98772.28;10454862;28;20040;-57
2024/02/23 05:31:47;;;;;;;0.60;0.20;;;;;;;17.33;57.38;98765.38;10454250;28;20096;-57
2024/02/23 05:36:47;;;;;;;1.55;0.20;;;;;;;17.34;57.51;98764.25;10454412;28;20295;-57
2024/02/23 05:41:48;;;;;;;0.50;0.32;;;;;;;17.35;57.11;98757.78;10453894;28;20468;-58
2024/02/23 05:46:48;;;;;;;0.20;0.10;;;;;;;17.35;57.29;98763.13;10453309;28;20377;-57
2024/02/23 05:51:48;;;;;;;0.87;0.20;;;;;;;17.33;57.35;98768.81;10440496;28;20029;-57
2024/02/23 05:56:49;;;;;;;1.00;0.40;;;;;;;17.35;56.99;98773.84;10441292;28;20333;-57
2024/02/23 06:01:52;;;;;;;0.52;0.20;;;;;;;17.33;57.45;98776.09;10453042;28;20275;-58
2024/02/23 06:06:52;;;;;;;4.20;0.40;;;;;;;17.41;58.15;98772.53;10453889;28;20017;-57
2024/02/23 06:11:52;;;;;;;0.88;0.28;;;;;;;17.44;57.92;98771.84;10452833;28;20041;-58
2024/02/23 06:16:53;;;;;;;2.58;0.30;;;;;;;17.45;57.66;98768.06;10453311;28;20017;-60
2024/02/23 06:21:53;;;;;;;2.75;0.55;;;;;;;17.55;57.17;98778.31;10450400;28;20083;-59
2024/02/23 06:26:53;;;;;;;7.53;1.63;;;;;;;17.60;57.89;98775.41;10452468;28;20032;-58
2024/02/23 06:31:54;;;;;;;11.10;2.97;;;;;;;17.59;58.09;98783.78;10449024;28;20271;-59
2024/02/23 06:36:55;;;;;;;7.43;0.80;;;;;;;17.56;58.50;98779.09;10452491;28;20754;-58
2024/02/23 06:41:57;;;;;;;7.72;1.08;;;;;;;17.53;58.55;98778.66;10452405;28;20661;-57
2024/02/23 06:46:57;;;;;;;15.32;1.25;;;;;;;17.46;58.44;98783.78;10451729;28;20017;-58
2024/02/23 06:51:58;;;;;;;13.32;1.27;;;;;;;17.42;60.48;98780.22;10451489;28;20024;-61
2024/02/23 06:56:58;;;;;;;11.03;1.50;;;;;;;17.42;59.53;98780.22;10452109;28;20029;-59
2024/02/23 07:01:58;;;;;;;7.80;1.10;;;;;;;17.36;59.33;98765.47;10450269;28;20275;-58
2024/02/23 07:06:59;;;;;;;8.98;1.30;;;;;;;17.33;59.70;98768.03;10452006;28;20021;-59
2024/02/23 07:11:59;;;;;;;8.65;1.35;;;;;;;17.29;59.66;98765.25;10449342;28;20098;-59
2024/02/23 07:17:00;;;;;;;9.07;2.35;;;;;;;17.23;57.45;98767.38;10450251;28;20025;-58
2024/02/23 07:22:00;;;;;;;10.17;1.20;;;;;;;17.20;58.28;98780.66;10450580;28;20487;-57
2024/02/23 07:27:00;;;;;;;8.43;1.00;;;;;;;17.16;58.67;98779.72;10448130;28;20031;-58
2024/02/23 07:32:02;;;;;;;10.20;1.17;;;;;;;17.16;58.77;98774.38;10445403;28;20045;-58
2024/02/23 07:37:03;;;;;;;9.88;1.30;;;;;;;17.20;58.74;98781.44;10449524;28;20025;-58
2024/02/23 07:42:05;;;;;;;4.78;0.80;;;;;;;17.21;58.91;98785.66;10448040;28;20453;-57
2024/02/23 07:47:06;;;;;;;5.45;0.70;;;;;;;17.20;57.72;98778.75;10449476;28;20407;-59
2024/02/23 07:52:06;;;;;;;1.83;0.73;;;;;;;17.27;58.94;98770.16;10448372;28;20048;-59
2024/02/23 07:57:07;;;;;;;4.25;1.60;;;;;;;17.31;57.06;98775.66;10448990;28;20638;-59
2024/02/23 08:02:07;;;;;;;2.55;0.75;;;;;;;17.33;57.99;98774.19;10449000;28;20036;-59
2024/02/23 08:07:08;;;;;;;4.17;0.97;;;;;;;17.32;57.66;98772.63;10448489;28;20067;-59
2024/02/23 08:12:09;;;;;;;4.65;1.17;;;;;;;17.31;57.77;98770.28;10448479;28;20671;-57
2024/02/23 08:17:10;;;;;;;7.32;1.90;;;;;;;17.28;57.42;98773.59;10448243;28;20036;-57
2024/02/23 08:22:10;;;;;;;2.08;0.50;;;;;;;17.29;57.33;98769.84;10448435;28;20075;-58
2024/02/23 08:27:11;;;;;;;2.63;0.50;;;;;;;17.30;57.03;98763.38;10448249;28;20075;-58
2024/02/23 08:32:12;;;;;;;3.78;0.77;;;;;;;17.27;56.43;98753.28;10437883;28;20279;-57
2024/02/23 08:37:13;;;;;;;3.17;0.73;;;;;;;17.29;57.60;98761.81;10444254;28;20044;-57
2024/02/23 08:42:13;;;;;;;3.08;0.80;;;;;;;17.33;57.33;98746.63;10447292;28;20039;-56
2024/02/23 08:47:13;;;;;;;3.67;0.50;;;;;;;17.31;57.03;98762.25;10447933;28;20039;-57
2024/02/23 08:52:14;;;;;;;2.08;0.45;;;;;;;17.28;57.07;98750.28;10451525;28;20298;-57
2024/02/23 08:57:19;;;;;;;2.10;0.57;;;;;;;17.28;56.70;98741.47;10455218;28;20361;-57
2024/02/23 09:02:20;;;;;;;3.25;0.50;;;;;;;17.29;57.11;98745.72;10456050;28;20635;-57
2024/02/23 09:07:20;;;;;;;3.00;0.65;;;;;;;17.24;56.88;98742.13;10454727;28;20048;-57
2024/02/23 09:12:21;;;;;;;2.83;0.60;;;;;;;17.26;57.40;98733.78;10455252;28;20471;-56
2024/02/23 09:17:21;;;;;;;2.23;0.50;;;;;;;17.24;57.07;98736.00;10454575;28;20027;-57
2024/02/23 09:22:22;;;;;;;1.35;0.50;;;;;;;17.22;57.00;98739.03;10454389;28;20780;-57
2024/02/23 09:27:22;;;;;;;1.35;0.57;;;;;;;17.23;56.37;98740.59;10452963;28;20025;-57
2024/02/23 09:32:23;;;;;;;1.47;0.40;;;;;;;17.24;56.36;98736.78;10454498;28;20021;-57
2024/02/23 09:37:23;;;;;;;2.27;0.50;;;;;;;17.23;56.84;98739.81;10453742;28;20295;-57
2024/02/23 09:42:25;;;;;;;2.40;0.73;;;;;;;17.22;56.82;98735.56;10453803;28;20340;-57
2024/02/23 09:47:28;;;;;;;2.22;0.40;;;;;;;17.25;55.66;98740.25;10451832;28;20016;-57
2024/02/23 09:52:29;;;;;;;3.20;0.70;;;;;;;17.23;57.46;98742.47;10453295;28;20036;-57
2024/02/23 09:57:29;;;;;;;2.17;0.73;;;;;;;17.21;57.46;98747.41;10453399;28;20033;-57
2024/02/23 10:02:31;;;;;;;6.18;0.60;;;;;;;17.23;55.66;98764.69;10451289;28;20495;-57
2024/02/23 10:07:31;;;;;;;2.33;0.60;;;;;;;17.22;56.27;98773.06;10439643;28;20031;-55
2024/02/23 10:12:33;;;;;;;4.17;0.50;;;;;;;17.23;57.23;98778.06;10452586;28;20504;-57
2024/02/23 10:17:33;;;;;;;1.63;0.30;;;;;;;17.21;57.52;98785.66;10451489;28;20037;-56
2024/02/23 10:22:35;;;;;;;3.83;0.37;;;;;;;17.25;57.37;98804.53;10453343;28;20029;-57
2024/02/23 10:27:35;;;;;;;3.42;0.70;;;;;;;17.22;56.37;98800.63;10452290;28;20309;-57
2024/02/23 10:32:36;;;;;;;2.67;0.50;;;;;;;17.19;56.96;98805.88;10451792;28;20534;-57
2024/02/23 10:37:36;;;;;;;0.82;0.40;;;;;;;17.22;57.11;98799.84;10449273;28;20340;-57
2024/02/23 10:42:40;;;;;;;2.50;0.50;;;;;;;17.23;57.40;98806.75;10451561;28;20024;-56
2024/02/23 10:47:41;;;;;;;1.98;0.65;;;;;;;17.21;56.52;98800.97;10449407;28;20111;-56
2024/02/23 10:52:42;;;;;;;2.58;0.50;;;;;;;17.17;57.49;98822.28;10449654;28;20468;-57
2024/02/23 10:57:43;;;;;;;6.40;0.90;;;;;;;17.20;56.96;98821.59;10449465;28;20033;-58
2024/02/23 11:02:46;;;;;;;1.60;0.68;;;;;;;17.19;56.55;98828.06;10450681;28;20028;-57
2024/02/23 11:07:50;;;;;;;2.50;0.68;;;;;;;17.25;55.95;98834.00;10447536;28;20018;-56
2024/02/23 11:12:58;;;;;;;1.63;0.50;;;;;;;17.28;56.26;98844.03;10440358;28;20053;-56
2024/02/23 11:17:58;;;;;;;4.47;0.60;;;;;;;17.21;55.68;98835.78;10450379;28;20086;-58
2024/02/23 11:22:58;;;;;;;5.07;0.73;;;;;;;17.19;57.18;98830.75;10448165;28;20480;-58
2024/02/23 11:27:59;;;;;;;1.60;0.53;;;;;;;17.21;56.85;98838.44;10448545;28;20279;-58
2024/02/23 11:32:59;;;;;;;2.85;1.08;;;;;;;17.25;55.81;98834.75;10449685;28;20391;-56
2024/02/23 11:38:05;;;;;;;7.03;0.70;;;;;;;17.20;56.42;98851.06;10449189;28;20098;-57
2024/02/23 11:43:05;;;;;;;4.05;0.60;;;;;;;17.27;55.67;98847.81;10444021;28;20035;-57
2024/02/23 11:48:07;;;;;;;3.53;0.90;;;;;;;17.28;56.87;98846.72;10448222;28;20028;-57
2024/02/23 11:53:08;;;;;;;5.10;0.85;;;;;;;17.22;55.73;98850.72;10448540;28;20024;-57
2024/02/23 11:58:09;;;;;;;2.72;0.50;;;;;;;17.23;56.31;98838.91;10447978;28;20025;-56
2024/02/23 12:03:09;;;;;;;4.43;0.60;;;;;;;17.21;55.94;98855.31;10448465;28;20020;-57
2024/02/23 12:08:10;;;;;;;3.38;0.75;;;;;;;17.20;56.67;98859.09;10448036;28;20392;-57
2024/02/23 12:13:10;;;;;;;3.90;0.80;;;;;;;17.18;56.15;98869.38;10447917;28;20041;-56
2024/02/23 12:18:11;;;;;;;4.97;1.40;;;;;;;17.16;56.98;98858.19;10446866;28;20275;-57
2024/02/23 12:23:12;;;;;;;3.13;0.75;;;;;;;17.13;56.12;98861.53;10448437;28;20302;-55
2024/02/23 12:28:18;;;;;;;2.50;0.50;;;;;;;17.08;57.43;98875.13;10453056;28;20043;-56
2024/02/23 12:33:20;;;;;;;4.85;0.80;;;;;;;17.07;56.94;98870.88;10456304;28;20017;-57
2024/02/23 12:38:20;;;;;;;6.35;0.70;;;;;;;17.10;57.18;98861.41;10456015;28;20037;-58
2024/02/23 12:43:23;;;;;;;2.63;0.68;;;;;;;17.08;56.85;98856.38;10455589;28;20020;-58
2024/02/23 12:48:24;;;;;;;2.42;0.63;;;;;;;17.00;58.12;98880.56;10435447;28;20182;-57
2024/02/23 12:53:36;;;;;;;3.45;0.77;;;;;;;16.94;58.63;98886.13;10455039;28;20113;-56
2024/02/23 12:58:37;;;;;;;2.95;0.68;;;;;;;16.98;56.82;98886.25;10454130;28;20388;-57
2024/02/23 13:03:40;;;;;;;5.25;1.15;;;;;;;17.00;57.97;98885.91;10456095;28;20408;-57
2024/02/23 13:08:42;;;;;;;3.75;0.70;;;;;;;16.98;56.88;98893.50;10453985;28;20551;-57
2024/02/23 13:13:42;;;;;;;2.50;0.50;;;;;;;16.95;58.25;98884.22;10450810;28;20124;-59
2024/02/23 13:18:43;;;;;;;2.35;0.50;;;;;;;16.96;56.79;98893.81;10446300;28;20512;-59
2024/02/23 13:23:44;;;;;;;6.57;0.70;;;;;;;16.93;57.69;98897.94;10454475;28;20031;-57
2024/02/23 13:28:44;;;;;;;4.80;0.70;;;;;;;16.99;57.05;98884.34;10454137;28;20467;-56
2024/02/23 13:33:45;;;;;;;4.97;0.75;;;;;;;17.01;57.09;98890.94;10455345;28;20307;-57
2024/02/23 13:38:45;;;;;;;3.22;0.68;;;;;;;16.99;56.82;98884.34;10454341;28;20558;-57
2024/02/23 13:43:48;;;;;;;3.70;0.73;;;;;;;17.07;56.96;98896.88;10453675;28;20033;-57
2024/02/23 13:49:02;;;;;;;3.70;0.68;;;;;;;17.12;56.70;98896.66;10454694;28;20287;-57
2024/02/23 13:54:03;;;;;;;2.90;0.80;;;;;;;17.12;57.70;98904.69;10454453;28;20484;-57
2024/02/23 13:59:03;;;;;;;11.25;2.60;;;;;;;17.11;57.16;98908.50;10454103;28;20029;-57
2024/02/23 14:04:06;;;;;;;10.63;1.90;;;;;;;17.06;58.19;98914.06;10454310;28;20063;-57
2024/02/23 14:09:07;;;;;;;26.20;2.67;;;;;;;17.06;58.97;98898.00;10452396;28;20078;-57
2024/02/23 14:14:07;;;;;;;22.57;3.50;;;;;;;17.12;58.42;98913.50;10451991;28;20048;-57
2024/02/23 14:19:08;;;;;;;26.23;3.75;;;;;;;17.12;58.05;98908.16;10451876;28;20283;-57
2024/02/23 14:24:09;;;;;;;19.75;2.70;;;;;;;17.15;58.78;98917.44;10449819;28;20017;-55
2024/02/23 14:29:09;;;;;;;29.90;4.28;;;;;;;17.15;59.34;98912.84;10449673;28;20025;-56
2024/02/23 14:34:09;;;;;;;24.60;3.67;;;;;;;17.11;58.37;98916.53;10445005;28;20025;-57
2024/02/23 14:39:10;;;;;;;35.75;5.65;;;;;;;17.10;58.91;98914.97;10451082;28;20302;-55
2024/02/23 14:44:11;;;;;;;30.00;4.63;;;;;;;17.11;58.05;98919.97;10449873;28;20028;-57
2024/02/23 14:49:11;;;;;;;21.07;3.60;;;;;;;17.08;58.56;98919.88;10450088;28;20025;-58
2024/02/23 14:54:12;;;;;;;29.60;4.50;;;;;;;16.95;58.04;98927.84;10451578;28;20288;-57
2024/02/23 14:59:13;;;;;;;19.38;4.63;;;;;;;17.01;57.45;98931.09;10450640;28;20056;-56
2024/02/23 15:04:13;;;;;;;22.70;4.10;;;;;;;17.02;58.14;98935.34;10450771;28;20025;-55
2024/02/23 15:09:14;;;;;;;18.70;3.65;;;;;;;16.98;58.15;98939.78;10448924;28;20325;-57
2024/02/23 15:14:15;;;;;;;17.73;3.33;;;;;;;16.95;57.99;98943.91;10449184;28;20114;-57
2024/02/23 15:19:15;;;;;;;17.10;3.35;;;;;;;16.86;58.14;98950.44;10449104;28;20027;-56
2024/02/23 15:24:18;;;;;;;15.87;3.47;;;;;;;16.93;58.67;98956.84;10449054;28;20021;-56
2024/02/23 15:29:18;;;;;;;28.70;4.55;;;;;;;16.96;57.22;98971.47;10449547;28;20029;-56
2024/02/23 15:34:18;;;;;;;24.37;4.03;;;;;;;16.99;56.78;98984.19;10427986;28;20025;-55
2024/02/23 15:39:18;;;;;;;24.00;4.13;;;;;;;17.02;57.39;98967.47;10434001;28;20276;-56
2024/02/23 15:44:19;;;;;;;20.60;5.10;;;;;;;17.08;56.97;98966.16;10445945;28;20283;-56
2024/02/23 15:49:19;;;;;;;22.55;4.80;;;;;;;17.14;59.27;98964.06;10439024;28;20024;-56
2024/02/23 15:54:21;;;;;;;28.58;5.20;;;;;;;17.14;56.89;98962.16;10444296;28;20036;-56
2024/02/23 15:59:21;;;;;;;18.67;4.53;;;;;;;17.08;57.36;98973.44;10448174;28;20029;-56
2024/02/23 16:04:22;;;;;;;26.47;3.77;;;;;;;17.06;58.47;98981.78;10444150;28;20435;-55
2024/02/23 16:09:22;;;;;;;13.48;3.05;;;;;;;17.01;57.99;98981.19;10441746;28;20287;-56
2024/02/23 16:14:23;;;;;;;8.80;2.78;;;;;;;17.09;57.85;98986.47;10447718;28;20041;-56
2024/02/23 16:19:23;;;;;;;14.50;3.63;;;;;;;17.03;59.60;98992.34;10447921;28;20041;-56
2024/02/23 16:24:24;;;;;;;21.17;4.22;;;;;;;17.00;58.84;98990.31;10445788;28;20021;-56
2024/02/23 16:29:24;;;;;;;19.70;3.17;;;;;;;16.89;59.57;98992.59;10441138;28;20029;-56
2024/02/23 16:34:24;;;;;;;18.30;2.95;;;;;;;16.89;59.73;98997.97;10448157;28;20028;-57
2024/02/23 16:39:25;;;;;;;19.17;7.30;;;;;;;17.02;58.75;98993.47;10447088;28;20028;-57
2024/02/23 16:44:25;;;;;;;13.23;3.45;;;;;;;17.01;58.13;98997.25;10444561;28;20384;-56
2024/02/23 16:49:25;;;;;;;12.97;2.73;;;;;;;16.99;58.52;98994.91;10445292;28;20483;-57
2024/02/23 16:54:26;;;;;;;11.77;3.50;;;;;;;17.06;58.03;98997.06;10448529;28;20291;-57
2024/02/23 16:59:26;;;;;;;10.80;3.30;;;;;;;17.09;59.89;99009.81;10448053;28;20017;-57
2024/02/23 17:04:26;;;;;;;21.13;3.87;;;;;;;17.42;60.09;99001.81;10448641;28;20279;-58
2024/02/23 17:09:27;;;;;;;16.83;3.90;;;;;;;17.45;59.61;98993.91;10448142;28;20283;-56
2024/02/23 17:14:28;;;;;;;14.15;3.63;;;;;;;17.41;59.32;99002.94;10453877;28;20860;-57
2024/02/23 17:19:28;;;;;;;14.85;3.45;;;;;;;17.37;59.38;99008.16;10455814;28;20029;-56
2024/02/23 17:24:28;;;;;;;14.13;3.95;;;;;;;17.36;58.98;98998.53;10455786;28;20029;-56
2024/02/23 17:29:29;;;;;;;15.00;3.63;;;;;;;17.46;59.34;99008.84;10455174;28;20108;-57
2024/02/23 17:34:29;;;;;;;15.97;3.80;;;;;;;17.45;59.96;99003.84;10455475;28;20294;-55
2024/02/23 17:39:29;;;;;;;14.87;2.77;;;;;;;17.45;59.91;99009.97;10455313;28;20268;-56
2024/02/23 17:44:30;;;;;;;14.25;2.88;;;;;;;17.31;59.22;99020.19;10455005;28;20275;-55
2024/02/23 17:49:30;;;;;;;12.73;3.80;;;;;;;17.25;59.80;99024.16;10455249;28;20033;-55
2024/02/23 17:54:30;;;;;;;14.10;3.47;;;;;;;17.16;59.75;99023.44;10440762;28;20116;-56
2024/02/23 17:59:31;;;;;;;10.47;2.30;;;;;;;17.14;59.26;99039.06;10443639;28;20060;-55
2024/02/23 18:04:31;;;;;;;14.23;2.70;;;;;;;17.14;58.25;99052.44;10452673;28;20374;-55
2024/02/23 18:09:32;;;;;;;8.03;2.63;;;;;;;17.11;59.71;99051.22;10453581;28;20025;-55
2024/02/23 18:14:32;;;;;;;6.07;2.25;;;;;;;17.10;58.34;99062.25;10453537;28;20762;-55
2024/02/23 18:19:33;;;;;;;6.93;1.83;;;;;;;17.12;58.74;99054.66;10453724;28;20109;-57
2024/02/23 18:24:34;;;;;;;8.45;2.00;;;;;;;17.12;59.61;99062.69;10446825;28;20029;-56
2024/02/23 18:29:34;;;;;;;12.53;2.93;;;;;;;17.20;59.04;99068.00;10452761;28;20492;-56
2024/02/23 18:34:35;;;;;;;9.20;2.33;;;;;;;17.16;58.08;99072.44;10450466;28;20287;-58
2024/02/23 18:39:35;;;;;;;9.82;2.33;;;;;;;17.18;58.39;99082.84;10445025;28;20364;-57
2024/02/23 18:44:36;;;;;;;9.40;1.98;;;;;;;17.21;58.48;99079.50;10439173;28;20147;-57
2024/02/23 18:49:36;;;;;;;9.90;2.35;;;;;;;17.21;59.36;99077.59;10452602;28;20736;-57
2024/02/23 18:54:37;;;;;;;8.20;1.85;;;;;;;17.24;58.85;99090.34;10446460;28;20025;-57
2024/02/23 18:59:37;;;;;;;5.93;1.63;;;;;;;17.27;58.84;99094.25;10451984;28;20048;-58
2024/02/23 19:04:38;;;;;;;5.18;1.70;;;;;;;17.25;59.17;99101.84;10450855;28;20275;-57
2024/02/23 19:09:38;;;;;;;5.47;1.90;;;;;;;17.24;58.58;99092.22;10446864;28;20452;-58
2024/02/23 19:14:38;;;;;;;11.40;2.00;;;;;;;17.25;58.05;99088.44;10432971;28;20303;-58
2024/02/23 19:19:39;;;;;;;4.83;1.33;;;;;;;17.27;58.04;99093.47;10425038;28;20284;-58
2024/02/23 19:24:39;;;;;;;5.13;1.67;;;;;;;17.30;57.48;99090.94;10415370;28;20079;-58
2024/02/23 19:29:39;;;;;;;3.40;1.40;;;;;;;17.28;57.96;99090.47;10434360;28;20291;-56
2024/02/23 19:34:40;;;;;;;5.90;1.67;;;;;;;17.27;58.96;99091.56;10438790;28;20115;-55
2024/02/23 19:39:40;;;;;;;7.13;1.40;;;;;;;17.30;57.51;99092.84;10446527;28;20110;-56
2024/02/23 19:44:40;;;;;;;6.77;1.60;;;;;;;17.29;58.82;99094.75;10441949;28;20063;-55
2024/02/23 19:49:41;;;;;;;5.83;2.40;;;;;;;17.29;58.77;99091.28;10444883;28;20282;-56
2024/02/23 19:54:41;;;;;;;3.33;1.50;;;;;;;17.30;59.10;99085.59;10441838;28;20310;-56
2024/02/23 19:59:41;;;;;;;4.38;1.27;;;;;;;17.30;59.19;99104.34;10448565;28;20025;-55
2024/02/23 20:04:43;;;;;;;2.70;1.27;;;;;;;17.28;57.64;99103.06;10445732;28;20021;-56
2024/02/23 20:09:43;;;;;;;4.13;1.30;;;;;;;17.24;58.99;99111.78;10449385;28;20021;-58
2024/02/23 20:14:44;;;;;;;9.63;1.67;;;;;;;17.23;59.27;99109.41;10449440;28;20025;-58
2024/02/23 20:19:44;;;;;;;4.82;1.27;;;;;;;17.21;58.84;99117.00;10449686;28;20746;-59
2024/02/23 20:24:45;;;;;;;5.63;2.03;;;;;;;17.16;59.33;99112.59;10441808;28;20028;-58
2024/02/23 20:29:45;;;;;;;5.05;1.15;;;;;;;17.14;58.71;99117.50;10448029;28;20090;-58
2024/02/23 20:34:45;;;;;;;2.17;1.00;;;;;;;17.12;59.43;99119.72;10448684;28;20051;-59
2024/02/23 20:39:46;;;;;;;3.93;1.30;;;;;;;17.11;58.89;99122.72;10447789;28;20321;-58
2024/02/23 20:44:46;;;;;;;2.47;1.17;;;;;;;17.11;59.37;99114.69;10447365;28;20268;-59
2024/02/23 20:49:48;;;;;;;2.73;0.97;;;;;;;17.14;59.02;99117.50;10454777;28;20301;-58
2024/02/23 20:54:48;;;;;;;3.72;1.25;;;;;;;17.16;58.85;99117.16;10456201;28;20293;-58
2024/02/23 20:59:48;;;;;;;6.35;1.45;;;;;;;17.17;57.57;99124.91;10455088;28;20348;-58
2024/02/23 21:04:49;;;;;;;7.67;1.37;;;;;;;17.19;57.39;99122.69;10456067;28;20021;-58
2024/02/23 21:09:50;;;;;;;4.13;1.10;;;;;;;17.22;57.64;99119.34;10456023;28;20048;-58
2024/02/23 21:14:50;;;;;;;2.63;0.85;;;;;;;17.19;58.66;99122.69;10455294;28;20037;-58
2024/02/23 21:19:51;;;;;;;2.97;1.00;;;;;;;17.22;58.52;99123.94;10455711;28;20025;-58
2024/02/23 21:24:51;;;;;;;2.67;0.70;;;;;;;17.24;57.73;99130.53;10454872;28;20044;-58
2024/02/23 21:29:51;;;;;;;3.67;0.80;;;;;;;17.22;57.66;99129.28;10455119;28;20279;-58
2024/02/23 21:34:51;;;;;;;3.27;1.33;;;;;;;17.23;57.90;99146.91;10454650;28;20334;-58
2024/02/23 21:39:52;;;;;;;4.63;1.75;;;;;;;17.23;57.39;99144.25;10453507;28;20275;-58
2024/02/23 21:44:52;;;;;;;2.47;0.70;;;;;;;17.24;57.53;99149.28;10454160;28;20025;-58
2024/02/23 21:49:52;;;;;;;6.20;0.90;;;;;;;17.25;57.53;99150.06;10454558;28;20290;-59
2024/02/23 21:54:53;;;;;;;2.17;0.90;;;;;;;17.27;57.34;99153.19;10453874;28;20291;-58
2024/02/23 21:59:54;;;;;;;2.23;0.90;;;;;;;17.27;56.93;99157.75;10454216;28;20041;-58
2024/02/23 22:04:56;;;;;;;1.88;0.68;;;;;;;17.27;58.16;99158.53;10453711;28;20289;-58
2024/02/23 22:09:56;;;;;;;4.18;1.17;;;;;;;17.22;57.01;99151.50;10453794;28;20488;-58
2024/02/23 22:15:02;;;;;;;2.63;0.73;;;;;;;17.25;56.75;99155.41;10451804;28;20029;-56
2024/02/23 22:20:04;;;;;;;2.63;1.00;;;;;;;17.24;56.22;99151.16;10453407;28;20025;-58
2024/02/23 22:25:05;;;;;;;1.50;0.63;;;;;;;17.25;57.30;99137.44;10452515;28;20021;-58
2024/02/23 22:30:08;;;;;;;2.50;0.88;;;;;;;17.24;56.44;99135.09;10452844;28;20120;-58
2024/02/23 22:35:08;;;;;;;2.55;0.68;;;;;;;17.30;56.78;99146.41;10452567;28;20036;-58
2024/02/23 22:40:12;;;;;;;2.40;0.65;;;;;;;17.27;56.48;99163.91;10452856;28;20700;-58
2024/02/23 22:45:13;;;;;;;2.58;0.70;;;;;;;17.27;56.92;99163.91;10452057;28;20028;-58
2024/02/23 22:50:13;;;;;;;1.17;0.50;;;;;;;17.27;56.77;99157.75;10452289;28;20036;-58
2024/02/23 22:55:14;;;;;;;1.80;0.57;;;;;;;17.28;56.76;99162.00;10451404;28;20344;-58
2024/02/23 23:00:14;;;;;;;1.38;0.68;;;;;;;17.28;56.57;99153.97;10452156;28;20025;-58
2024/02/23 23:05:15;;;;;;;3.33;0.80;;;;;;;17.27;56.49;99153.19;10449970;28;20061;-58
2024/02/23 23:10:15;;;;;;;0.90;0.50;;;;;;;17.30;57.21;99146.41;10450636;28;20072;-58
2024/02/23 23:15:15;;;;;;;1.60;0.80;;;;;;;17.29;56.94;99159.03;10450690;28;20021;-57